createdAt,value
2018-01-11T00:25:42.213Z,7.00
2018-01-11T00:28:10.399Z,7.00
2018-01-11T00:33:31.723Z,5.70
2018-01-11T01:30:38.149Z,6.70
2018-01-11T02:45:46.162Z,5.90
2018-01-11T02:48:15.316Z,6.00
2018-01-11T02:53:21.954Z,6.00
2018-01-11T03:06:02.409Z,5.70
2018-01-11T03:14:28.577Z,6.00
2018-01-11T03:34:28.297Z,5.80
2018-01-11T04:34:30.153Z,6.00
2018-01-11T04:46:13.201Z,5.90
2018-01-11T04:51:20.124Z,6.00
2018-01-11T04:53:50.990Z,5.80
2018-01-11T04:56:19.850Z,5.80
2018-01-11T05:01:35.352Z,5.70
2018-01-11T05:09:24.330Z,5.80
2018-01-11T05:18:13.368Z,5.70
2018-01-11T05:23:19.626Z,5.70
2018-01-11T05:28:25.455Z,5.60
2018-01-11T05:30:56.506Z,5.40
2018-01-11T05:33:24.918Z,5.20
2018-01-11T05:38:38.967Z,5.10
2018-01-11T05:41:07.057Z,5.10
2018-01-11T05:43:40.853Z,5.10
2018-01-11T05:46:09.748Z,5.10
2018-01-11T05:53:57.092Z,4.80
2018-01-11T05:56:26.137Z,4.90
2018-01-11T05:58:58.185Z,5.00
2018-01-11T06:01:28.085Z,5.00
2018-01-11T06:06:32.520Z,5.10
2018-01-11T06:09:01.566Z,5.10
2018-01-11T06:11:33.904Z,5.00
2018-01-11T06:14:02.004Z,5.00
2018-01-11T06:21:38.098Z,5.10
2018-01-11T06:24:16.812Z,5.10
2018-01-11T06:32:03.772Z,4.90
2018-01-11T06:39:40.969Z,4.90
2018-01-11T06:48:04.473Z,5.00
2018-01-11T06:50:32.588Z,5.00
2018-01-11T06:53:00.676Z,5.00
2018-01-11T06:55:29.123Z,5.10
2018-01-11T06:58:02.716Z,5.10
2018-01-11T07:00:31.689Z,5.10
2018-01-11T07:02:59.819Z,5.10
2018-01-11T07:05:32.788Z,5.10
2018-01-11T07:08:05.572Z,5.10
2018-01-11T07:10:34.025Z,5.10
2018-01-11T07:13:04.898Z,5.20
2018-01-11T07:15:34.041Z,5.40
2018-01-11T07:18:04.165Z,5.40
2018-01-11T07:20:32.381Z,5.50
2018-01-11T07:23:01.433Z,5.30
2018-01-11T07:25:29.567Z,5.30
2018-01-11T07:27:57.772Z,5.20
2018-01-11T07:30:27.308Z,5.00
2018-01-11T07:32:55.596Z,5.10
2018-01-11T07:35:27.636Z,5.10
2018-01-11T07:37:55.748Z,5.20
2018-01-11T07:40:25.096Z,5.20
2018-01-11T07:42:53.984Z,5.20
2018-01-11T07:49:30.047Z,5.30
2018-01-11T07:52:00.419Z,5.30
2018-01-11T07:54:28.582Z,5.40
2018-01-11T07:56:56.731Z,5.50
2018-01-11T07:59:26.284Z,5.60
2018-01-11T08:01:54.394Z,5.60
2018-01-11T08:09:50.699Z,5.40
2018-01-11T08:12:23.916Z,5.40
2018-01-11T08:14:54.075Z,5.30
2018-01-11T08:20:13.493Z,5.30
2018-01-11T08:22:46.400Z,5.40
2018-01-11T08:25:15.038Z,5.50
2018-01-11T08:27:50.039Z,5.50
2018-01-11T08:35:30.267Z,5.50
2018-01-11T08:40:37.762Z,5.50
2018-01-11T08:45:40.169Z,5.50
2018-01-11T08:50:42.728Z,5.60
2018-01-11T08:53:13.432Z,5.60
2018-01-11T09:01:09.664Z,5.80
2018-01-11T09:06:59.308Z,5.80
2018-01-11T09:09:27.432Z,5.90
2018-01-11T09:14:33.024Z,6.00
2018-01-11T09:17:06.418Z,6.00
2018-01-11T09:23:41.666Z,6.20
2018-01-11T09:28:54.951Z,6.30
2018-01-11T09:31:23.086Z,6.40
2018-01-11T09:38:06.757Z,6.30
2018-01-11T09:48:26.419Z,6.40
2018-01-11T09:50:56.255Z,6.40
2018-01-11T09:56:23.392Z,6.60
2018-01-11T09:58:55.400Z,6.70
2018-01-11T10:01:25.382Z,6.70
2018-01-11T10:03:55.293Z,6.70
2018-01-11T10:09:01.663Z,6.80
2018-01-11T10:11:30.743Z,6.80
2018-01-11T10:14:03.827Z,6.80
2018-01-11T10:23:37.545Z,7.00
2018-01-11T10:26:06.784Z,7.00
2018-01-11T10:28:35.725Z,7.10
2018-01-11T10:33:55.461Z,7.00
2018-01-11T10:36:24.542Z,6.90
2018-01-11T10:39:20.772Z,6.80
2018-01-11T10:41:58.111Z,6.90
2018-01-11T10:44:31.227Z,7.00
2018-01-11T10:47:02.156Z,7.00
2018-01-11T10:52:26.901Z,7.20
2018-01-11T11:00:03.875Z,7.20
2018-01-11T11:02:40.485Z,7.30
2018-01-11T11:05:09.539Z,7.40
2018-01-11T11:07:37.632Z,7.40
2018-01-11T11:12:42.434Z,7.50
2018-01-11T11:15:17.177Z,7.50
2018-01-11T11:17:47.236Z,7.50
2018-01-11T11:20:16.573Z,7.50
2018-01-11T11:22:51.047Z,7.50
2018-01-11T11:25:19.278Z,7.50
2018-01-11T11:27:52.361Z,7.50
2018-01-11T11:30:21.283Z,7.50
2018-01-11T11:32:54.262Z,7.60
2018-01-11T11:37:59.605Z,7.80
2018-01-11T11:40:33.740Z,7.90
2018-01-11T11:45:53.738Z,7.80
2018-01-11T11:48:24.722Z,7.80
2018-01-11T11:50:59.887Z,7.90
2018-01-11T11:53:31.782Z,7.90
2018-01-11T11:56:00.973Z,7.80
2018-01-11T11:58:41.822Z,7.80
2018-01-11T12:01:10.755Z,7.80
2018-01-11T12:07:04.062Z,7.80
2018-01-11T12:09:34.529Z,7.80
2018-01-11T12:14:37.926Z,7.70
2018-01-11T12:19:45.281Z,7.80
2018-01-11T12:24:46.705Z,7.90
2018-01-11T12:30:37.320Z,8.00
2018-01-11T12:38:19.424Z,8.10
2018-01-11T12:40:49.132Z,8.10
2018-01-11T12:43:19.849Z,8.10
2018-01-11T12:45:47.953Z,8.30
2018-01-11T12:50:53.354Z,8.30
2018-01-11T12:53:28.312Z,8.40
2018-01-11T12:56:00.738Z,8.40
2018-01-11T12:58:28.827Z,8.50
2018-01-11T13:00:59.608Z,8.40
2018-01-11T13:03:27.729Z,8.40
2018-01-11T13:08:48.942Z,8.60
2018-01-11T13:11:18.621Z,8.50
2018-01-11T13:13:50.579Z,8.50
2018-01-11T13:16:21.165Z,8.50
2018-01-11T13:18:52.949Z,8.50
2018-01-11T13:21:26.177Z,8.50
2018-01-11T13:32:54.813Z,8.50
2018-01-11T13:35:26.942Z,8.40
2018-01-11T13:43:34.448Z,8.30
2018-01-11T13:46:03.541Z,8.40
2018-01-11T13:48:35.999Z,8.20
2018-01-11T13:53:40.227Z,8.20
2018-01-11T13:56:11.911Z,8.20
2018-01-11T13:58:42.585Z,8.10
2018-01-11T14:03:55.789Z,8.10
2018-01-11T14:09:00.371Z,8.10
2018-01-11T14:11:28.732Z,8.10
2018-01-11T14:14:00.662Z,8.20
2018-01-11T14:16:28.766Z,8.20
2018-01-11T14:21:34.093Z,8.20
2018-01-11T14:24:02.177Z,8.10
2018-01-11T14:29:13.848Z,8.10
2018-01-11T14:34:17.356Z,8.10
2018-01-11T14:36:53.479Z,8.10
2018-01-11T14:41:55.995Z,7.90
2018-01-11T14:44:27.991Z,7.90
2018-01-11T14:46:56.080Z,8.00
2018-01-11T14:52:15.053Z,8.00
2018-01-11T14:57:27.175Z,8.00
2018-01-11T15:00:04.149Z,7.90
2018-01-11T15:13:11.801Z,7.90
2018-01-11T15:18:16.786Z,7.90
2018-01-11T15:20:59.370Z,7.80
2018-01-11T15:23:27.473Z,7.80
2018-01-11T15:26:04.708Z,7.80
2018-01-11T15:28:35.347Z,7.90
2018-01-11T15:35:30.498Z,7.90
2018-01-11T15:38:02.619Z,7.90
2018-01-11T15:40:32.193Z,7.80
2018-01-11T15:43:04.889Z,7.80
2018-01-11T15:45:33.771Z,7.70
2018-01-11T15:48:03.848Z,7.80
2018-01-11T15:50:32.932Z,7.70
2018-01-11T15:53:09.045Z,7.70
2018-01-11T16:03:39.885Z,7.70
2018-01-11T16:06:08.265Z,7.70
2018-01-11T16:08:42.221Z,7.70
2018-01-11T16:11:11.361Z,7.70
2018-01-11T16:13:44.376Z,7.70
2018-01-11T16:16:14.388Z,7.60
2018-01-11T16:21:25.564Z,7.60
2018-01-11T16:27:09.930Z,7.50
2018-01-11T16:29:44.629Z,7.50
2018-01-11T16:32:14.492Z,7.40
2018-01-11T16:34:42.652Z,7.40
2018-01-11T16:37:11.334Z,7.40
2018-01-11T16:39:43.052Z,7.40
2018-01-11T16:42:11.966Z,7.30
2018-01-11T16:44:45.690Z,7.20
2018-01-11T16:53:50.096Z,7.10
2018-01-11T16:56:22.315Z,7.00
2018-01-11T16:58:50.731Z,7.00
2018-01-11T17:01:20.896Z,7.00
2018-01-11T17:03:51.423Z,6.80
2018-01-11T17:06:23.539Z,6.90
2018-01-11T17:08:51.803Z,6.80
2018-01-11T17:11:22.342Z,6.90
2018-01-11T17:13:50.484Z,6.90
2018-01-11T17:16:18.611Z,6.90
2018-01-11T17:21:20.029Z,6.90
2018-01-11T17:23:49.061Z,6.80
2018-01-11T17:26:17.146Z,6.70
2018-01-11T17:28:46.277Z,6.70
2018-01-11T17:31:14.424Z,6.70
2018-01-11T17:33:44.434Z,6.70
2018-01-11T17:36:12.680Z,6.70
2018-01-11T17:38:41.711Z,6.70
2018-01-11T17:41:10.911Z,6.70
2018-01-11T17:43:39.162Z,6.70
2018-01-11T17:48:40.688Z,6.60
2018-01-11T17:51:15.864Z,6.70
2018-01-11T17:53:47.014Z,6.60
2018-01-11T17:58:51.573Z,6.60
2018-01-11T18:01:20.816Z,6.60
2018-01-11T18:03:49.794Z,6.70
2018-01-11T18:06:19.680Z,6.70
2018-01-11T18:08:51.133Z,6.60
2018-01-11T18:11:19.228Z,6.60
2018-01-11T18:13:54.265Z,6.60
2018-01-11T18:16:23.132Z,6.60
2018-01-11T18:18:51.322Z,6.60
2018-01-11T18:21:20.214Z,6.60
2018-01-11T18:26:29.555Z,6.60
2018-01-11T18:28:58.621Z,6.40
2018-01-11T18:34:05.865Z,6.40
2018-01-11T18:36:36.742Z,6.50
2018-01-11T18:39:05.859Z,6.50
2018-01-11T18:41:34.080Z,6.60
2018-01-11T18:44:04.661Z,6.60
2018-01-11T18:46:33.821Z,6.60
2018-01-11T18:49:08.298Z,6.50
2018-01-11T18:51:36.461Z,6.50
2018-01-11T18:54:04.608Z,6.50
2018-01-11T18:56:32.774Z,6.50
2018-01-11T18:59:00.871Z,6.60
2018-01-11T19:01:29.027Z,6.60
2018-01-11T19:03:57.156Z,6.60
2018-01-11T19:06:26.089Z,6.60
2018-01-11T19:08:55.103Z,6.60
2018-01-11T19:11:23.175Z,6.60
2018-01-11T19:13:51.320Z,6.50
2018-01-11T19:16:19.423Z,6.60
2018-01-11T19:22:51.653Z,6.50
2018-01-11T19:25:20.564Z,6.60
2018-01-11T19:30:41.791Z,6.50
2018-01-11T19:33:10.633Z,6.50
2018-01-11T19:35:39.293Z,6.50
2018-01-11T19:38:11.277Z,6.50
2018-01-11T19:40:39.393Z,6.50
2018-01-11T19:43:08.314Z,6.50
2018-01-11T19:45:36.407Z,6.40
2018-01-11T19:48:05.195Z,6.40
2018-01-11T19:50:33.329Z,6.40
2018-01-11T19:53:02.217Z,6.50
2018-01-11T19:55:31.155Z,6.50
2018-01-11T19:57:59.233Z,6.60
2018-01-11T20:00:27.587Z,6.50
2018-01-11T20:02:55.688Z,6.50
2018-01-11T20:05:23.911Z,6.40
2018-01-11T20:11:08.253Z,6.30
2018-01-11T20:13:40.655Z,6.30
2018-01-11T20:16:09.564Z,6.30
2018-01-11T20:18:41.567Z,6.30
2018-01-11T20:21:09.855Z,6.20
2018-01-11T20:23:39.823Z,6.20
2018-01-11T20:26:08.751Z,6.10
2018-01-11T20:31:16.908Z,6.20
2018-01-11T20:33:51.749Z,6.20
2018-01-11T20:36:19.904Z,6.10
2018-01-11T20:38:48.087Z,6.10
2018-01-11T20:41:16.977Z,6.20
2018-01-11T20:43:45.052Z,6.20
2018-01-11T20:46:14.930Z,6.10
2018-01-11T20:48:43.155Z,6.00
2018-01-11T20:51:12.550Z,5.90
2018-01-11T20:53:41.340Z,5.90
2018-01-11T20:56:10.279Z,5.80
2018-01-11T20:58:38.369Z,5.90
2018-01-11T21:01:06.605Z,5.90
2018-01-11T21:03:34.696Z,6.00
2018-01-11T21:06:04.734Z,5.90
2018-01-11T21:08:35.720Z,5.90
2018-01-11T21:11:03.820Z,5.80
2018-01-11T21:22:17.906Z,6.00
2018-01-11T21:24:46.089Z,6.00
2018-01-11T21:27:14.193Z,6.10
2018-01-11T21:29:43.151Z,6.10
2018-01-11T21:32:12.064Z,6.10
2018-01-11T22:37:29.671Z,6.10
2018-01-11T22:40:00.496Z,5.90
2018-01-11T22:48:24.366Z,6.00
2018-01-11T22:51:01.273Z,6.00
2018-01-11T22:56:07.510Z,6.10
2018-01-11T23:01:29.208Z,6.10
2018-01-11T23:08:27.478Z,6.00
2018-01-11T23:11:01.871Z,5.80
2018-01-11T23:13:55.220Z,5.70
2018-01-11T23:34:49.547Z,5.70
2018-01-11T23:43:08.088Z,5.70
2018-01-11T23:48:09.979Z,5.70
2018-01-11T23:56:15.344Z,5.80
